Aérodrome :
LOGIN :

S'inscrire | Disclaimer

   EN    FR    IT 

 










Légende :    VFR   VFR Marginal   IFR   IFR Intensif   IFR Très Intensif
Visi : 
Plafond : 
>= 8 km
>= 3000ft
5 à 8 km
1000 à 3000 ft
1500m à 5 km
500 à 1000 ft
800 à 1500m
200 à 500 ft
< 800m
< 200 ft
Symboles :   Orages  Brouillard  Fortes neiges  Fortes précipitations  Vent > 20 kt
SIGMETs :   Divers  Orages  Givrage  Turbulence  Onde Orograph.  Cendres Volcan.






- Altitude de l'aérodrome : 1017 ft


LFSL - Brive Souillac

DERNIER METAR :
  • 271530Z AUTO 30010KT 8000 -RA BKN012 BKN033 OVC045 10/09 Q1012 TEMPO 3000 RA OVC005

METARs EXPIRÉS :
  • 271500Z AUTO 29010KT 260V320 9000 BKN010/// BKN016/// BKN027/// ///TCU 10/09 Q1012 TEMPO 3000 RA OVC005
  • 271430Z AUTO 29009KT 260V320 9999 FEW013 SCT031 OVC045 10/09 Q1012 TEMPO 3000 RA OVC005
  • 271400Z AUTO 28008KT 220V330 9999 -DZ SCT010 BKN020 BKN038 10/09 Q1012 TEMPO 3000 RA OVC005
  • 271330Z AUTO 28010KT 240V310 9999 -RADZ FEW009 BKN016 BKN030 10/09 Q1012 TEMPO 3000 RA OVC005
  • 271300Z AUTO 28011KT 240V310 9999 SCT010 BKN016 BKN022 09/08 Q1012 TEMPO 3000 RA OVC005

TAF TAF LFSL
Valide du 27 à 15h jusqu'au 28 à 00h UTC


271400Z 2715/2724 29007KT 9999 SCT009 BKN033
PROB40
TEMPO 2715/2724 3000 RA OVC005



MET'MAP, la Météo Aéronautique d'un coup d'oeil ! - Copyright ORBIFLY Décembre 2007 - Disclaimer

ORBIFLY MET'MAP TEAM :

Programmation & Développement : Alexandra Zaïnal
Sur une idée originale de : Baudouin d'Aumeries
Assistance à la programmation : Marc-Olivier Méhu
Soutien technique & logistique : Manuel Goepfert

Contact : metmap@orbifly.com




SOURCES & CREDITS :

   NOAA